sensor_id;sensor_type;location;lat;lon;timestamp;pressure;altitude;pressure_sealevel;temperature;humidity
31681;BME280;18281;51.364;9.566;2023-03-21T00:00:33;100150.97;;;6.35;100.00
31681;BME280;18281;51.364;9.566;2023-03-21T00:02:59;100151.75;;;6.37;100.00
31681;BME280;18281;51.364;9.566;2023-03-21T00:05:25;100148.44;;;6.32;100.00
31681;BME280;18281;51.364;9.566;2023-03-21T00:07:51;100145.84;;;6.32;100.00
31681;BME280;18281;51.364;9.566;2023-03-21T00:10:16;100148.44;;;6.32;100.00
31681;BME280;18281;51.364;9.566;2023-03-21T00:12:44;100148.50;;;6.30;100.00
31681;BME280;18281;51.364;9.566;2023-03-21T00:15:15;100145.94;;;6.29;100.00
31681;BME280;18281;51.364;9.566;2023-03-21T00:17:43;100143.22;;;6.32;100.00
31681;BME280;18281;51.364;9.566;2023-03-21T00:20:11;100144.09;;;6.32;100.00
31681;BME280;18281;51.364;9.566;2023-03-21T00:22:39;100140.59;;;6.33;100.00
31681;BME280;18281;51.364;9.566;2023-03-21T00:25:04;100149.25;;;6.34;100.00
31681;BME280;18281;51.364;9.566;2023-03-21T00:27:30;100145.13;;;6.28;100.00
31681;BME280;18281;51.364;9.566;2023-03-21T00:29:57;100134.00;;;6.23;100.00
31681;BME280;18281;51.364;9.566;2023-03-21T00:32:23;100137.34;;;6.27;100.00
31681;BME280;18281;51.364;9.566;2023-03-21T00:34:49;100131.19;;;6.29;100.00
31681;BME280;18281;51.364;9.566;2023-03-21T00:37:16;100125.84;;;6.32;100.00
31681;BME280;18281;51.364;9.566;2023-03-21T00:39:43;100118.03;;;6.32;100.00
31681;BME280;18281;51.364;9.566;2023-03-21T00:42:12;100124.19;;;6.30;100.00
31681;BME280;18281;51.364;9.566;2023-03-21T00:44:40;100126.00;;;6.28;100.00
31681;BME280;18281;51.364;9.566;2023-03-21T00:47:07;100120.63;;;6.32;100.00
31681;BME280;18281;51.364;9.566;2023-03-21T00:49:33;100121.66;;;6.28;100.00
31681;BME280;18281;51.364;9.566;2023-03-21T00:51:59;100118.16;;;6.28;100.00
31681;BME280;18281;51.364;9.566;2023-03-21T00:54:25;100112.81;;;6.32;100.00
31681;BME280;18281;51.364;9.566;2023-03-21T00:56:51;100109.19;;;6.36;100.00
31681;BME280;18281;51.364;9.566;2023-03-21T00:59:16;100107.66;;;6.31;100.00
31681;BME280;18281;51.364;9.566;2023-03-21T01:01:42;100113.91;;;6.25;100.00
31681;BME280;18281;51.364;9.566;2023-03-21T01:04:10;100109.50;;;6.27;100.00
31681;BME280;18281;51.364;9.566;2023-03-21T01:06:40;100111.47;;;6.20;100.00
31681;BME280;18281;51.364;9.566;2023-03-21T01:09:21;100113.97;;;6.23;100.00
31681;BME280;18281;51.364;9.566;2023-03-21T01:11:48;100110.34;;;6.28;100.00
31681;BME280;18281;51.364;9.566;2023-03-21T01:14:16;100109.50;;;6.27;100.00
31681;BME280;18281;51.364;9.566;2023-03-21T01:16:42;100107.91;;;6.23;100.00
31681;BME280;18281;51.364;9.566;2023-03-21T01:19:11;100103.59;;;6.22;100.00
31681;BME280;18281;51.364;9.566;2023-03-21T01:21:42;100108.75;;;6.23;100.00
31681;BME280;18281;51.364;9.566;2023-03-21T01:24:08;100101.00;;;6.22;100.00
31681;BME280;18281;51.364;9.566;2023-03-21T01:26:38;100098.38;;;6.22;100.00
31681;BME280;18281;51.364;9.566;2023-03-21T01:29:04;100094.06;;;6.21;100.00
31681;BME280;18281;51.364;9.566;2023-03-21T01:31:30;100099.03;;;6.29;100.00
31681;BME280;18281;51.364;9.566;2023-03-21T01:33:55;100097.69;;;6.17;100.00
31681;BME280;18281;51.364;9.566;2023-03-21T01:36:23;100099.28;;;6.21;100.00
31681;BME280;18281;51.364;9.566;2023-03-21T01:38:50;100100.03;;;6.24;100.00
31681;BME280;18281;51.364;9.566;2023-03-21T01:41:29;100103.66;;;6.20;100.00
31681;BME280;18281;51.364;9.566;2023-03-21T01:43:55;100101.97;;;6.19;100.00
31681;BME280;18281;51.364;9.566;2023-03-21T01:49:00;100088.84;;;6.21;100.00
31681;BME280;18281;51.364;9.566;2023-03-21T01:51:28;100093.25;;;6.20;100.00
31681;BME280;18281;51.364;9.566;2023-03-21T01:53:55;100085.22;;;6.27;100.00
31681;BME280;18281;51.364;9.566;2023-03-21T01:56:32;100080.03;;;6.25;100.00
31681;BME280;18281;51.364;9.566;2023-03-21T01:59:29;100075.19;;;6.14;100.00
31681;BME280;18281;51.364;9.566;2023-03-21T02:01:59;100080.66;;;6.32;100.00
31681;BME280;18281;51.364;9.566;2023-03-21T02:04:32;100073.06;;;6.26;100.00
31681;BME280;18281;51.364;9.566;2023-03-21T02:07:05;100078.56;;;6.18;100.00
31681;BME280;18281;51.364;9.566;2023-03-21T02:09:34;100066.53;;;6.14;100.00
31681;BME280;18281;51.364;9.566;2023-03-21T02:12:02;100068.97;;;6.18;100.00
31681;BME280;18281;51.364;9.566;2023-03-21T02:14:31;100071.56;;;6.18;100.00
31681;BME280;18281;51.364;9.566;2023-03-21T02:17:15;100064.84;;;6.13;100.00
31681;BME280;18281;51.364;9.566;2023-03-21T02:20:10;100074.28;;;6.15;100.00
31681;BME280;18281;51.364;9.566;2023-03-21T02:26:34;100061.19;;;6.17;100.00
31681;BME280;18281;51.364;9.566;2023-03-21T02:34:59;100050.97;;;6.12;100.00
31681;BME280;18281;51.364;9.566;2023-03-21T02:37:45;100054.34;;;6.14;100.00
31681;BME280;18281;51.364;9.566;2023-03-21T02:40:22;100050.97;;;6.12;100.00
31681;BME280;18281;51.364;9.566;2023-03-21T02:43:27;100051.84;;;6.11;100.00
31681;BME280;18281;51.364;9.566;2023-03-21T02:48:51;100039.63;;;6.13;100.00
31681;BME280;18281;51.364;9.566;2023-03-21T02:51:20;100045.81;;;6.11;100.00
31681;BME280;18281;51.364;9.566;2023-03-21T02:53:52;100046.75;;;6.08;100.00
31681;BME280;18281;51.364;9.566;2023-03-21T02:56:20;100051.09;;;6.07;100.00
31681;BME280;18281;51.364;9.566;2023-03-21T02:58:47;100052.81;;;6.09;100.00
31681;BME280;18281;51.364;9.566;2023-03-21T03:01:16;100059.06;;;6.04;100.00
31681;BME280;18281;51.364;9.566;2023-03-21T03:03:47;100051.66;;;6.17;100.00
31681;BME280;18281;51.364;9.566;2023-03-21T03:06:25;100046.75;;;6.08;100.00
31681;BME280;18281;51.364;9.566;2023-03-21T03:09:14;100051.75;;;6.14;100.00
31681;BME280;18281;51.364;9.566;2023-03-21T03:11:44;100045.16;;;6.28;100.00
31681;BME280;18281;51.364;9.566;2023-03-21T03:20:34;100037.59;;;6.21;100.00
31681;BME280;18281;51.364;9.566;2023-03-21T03:23:34;100044.59;;;6.19;100.00
31681;BME280;18281;51.364;9.566;2023-03-21T03:26:08;100040.25;;;6.20;100.00
31681;BME280;18281;51.364;9.566;2023-03-21T03:28:38;100037.25;;;6.07;100.00
31681;BME280;18281;51.364;9.566;2023-03-21T03:31:06;100036.44;;;6.05;100.00
31681;BME280;18281;51.364;9.566;2023-03-21T03:33:34;100036.44;;;6.05;100.00
31681;BME280;18281;51.364;9.566;2023-03-21T03:36:06;100040.06;;;6.01;100.00
31681;BME280;18281;51.364;9.566;2023-03-21T03:38:37;100041.66;;;6.05;100.00
31681;BME280;18281;51.364;9.566;2023-03-21T03:41:18;100031.13;;;6.08;100.00
31681;BME280;18281;51.364;9.566;2023-03-21T03:43:48;100027.16;;;6.21;100.00
31681;BME280;18281;51.364;9.566;2023-03-21T03:49:01;100033.25;;;5.97;100.00
31681;BME280;18281;51.364;9.566;2023-03-21T03:51:32;100024.22;;;6.07;100.00
31681;BME280;18281;51.364;9.566;2023-03-21T03:54:03;100025.34;;;6.00;100.00
31681;BME280;18281;51.364;9.566;2023-03-21T03:56:31;100020.00;;;6.03;100.00
31681;BME280;18281;51.364;9.566;2023-03-21T03:59:01;100017.53;;;6.00;100.00
31681;BME280;18281;51.364;9.566;2023-03-21T04:01:28;100021.03;;;5.99;100.00
31681;BME280;18281;51.364;9.566;2023-03-21T04:03:54;100020.22;;;5.97;100.00
31681;BME280;18281;51.364;9.566;2023-03-21T04:06:20;100027.97;;;5.98;100.00
31681;BME280;18281;51.364;9.566;2023-03-21T04:08:47;100018.31;;;6.02;100.00
31681;BME280;18281;51.364;9.566;2023-03-21T04:11:13;100014.94;;;6.00;100.00
31681;BME280;18281;51.364;9.566;2023-03-21T04:13:43;100019.22;;;6.01;100.00
31681;BME280;18281;51.364;9.566;2023-03-21T04:16:09;100016.66;;;5.99;100.00
31681;BME280;18281;51.364;9.566;2023-03-21T04:18:36;100012.34;;;5.98;100.00
31681;BME280;18281;51.364;9.566;2023-03-21T04:21:09;100019.31;;;5.98;100.00
31681;BME280;18281;51.364;9.566;2023-03-21T04:23:35;100009.03;;;5.95;100.00
31681;BME280;18281;51.364;9.566;2023-03-21T04:26:02;100009.47;;;6.06;100.00
31681;BME280;18281;51.364;9.566;2023-03-21T04:28:27;100005.97;;;6.07;100.00
31681;BME280;18281;51.364;9.566;2023-03-21T04:30:53;100010.28;;;6.08;100.00
31681;BME280;18281;51.364;9.566;2023-03-21T04:33:22;100011.28;;;6.04;100.00
31681;BME280;18281;51.364;9.566;2023-03-21T04:35:50;100016.22;;;5.88;100.00
31681;BME280;18281;51.364;9.566;2023-03-21T04:38:24;100008.16;;;5.94;100.00
31681;BME280;18281;51.364;9.566;2023-03-21T04:40:50;100010.50;;;6.02;100.00
31681;BME280;18281;51.364;9.566;2023-03-21T04:43:16;100004.09;;;6.11;100.00
31681;BME280;18281;51.364;9.566;2023-03-21T04:45:42;100005.84;;;6.10;100.00
31681;BME280;18281;51.364;9.566;2023-03-21T04:48:08;99998.16;;;6.07;100.00
31681;BME280;18281;51.364;9.566;2023-03-21T04:50:33;100008.16;;;5.94;100.00
31681;BME280;18281;51.364;9.566;2023-03-21T04:52:59;100009.34;;;5.85;100.00
31681;BME280;18281;51.364;9.566;2023-03-21T04:55:25;100009.03;;;5.95;100.00
31681;BME280;18281;51.364;9.566;2023-03-21T04:57:52;99998.41;;;5.99;100.00
31681;BME280;18281;51.364;9.566;2023-03-21T05:00:19;100004.16;;;6.09;100.00
31681;BME280;18281;51.364;9.566;2023-03-21T05:02:45;100005.28;;;6.02;100.00
31681;BME280;18281;51.364;9.566;2023-03-21T05:05:11;99998.16;;;6.07;100.00
31681;BME280;18281;51.364;9.566;2023-03-21T05:07:39;99995.03;;;5.97;100.00
31681;BME280;18281;51.364;9.566;2023-03-21T05:10:06;99990.78;;;5.95;100.00
31681;BME280;18281;51.364;9.566;2023-03-21T05:12:33;100002.38;;;5.86;100.00
31681;BME280;18281;51.364;9.566;2023-03-21T05:14:58;99991.19;;;5.84;100.00
31681;BME280;18281;51.364;9.566;2023-03-21T05:17:24;100002.22;;;5.90;100.00
31681;BME280;18281;51.364;9.566;2023-03-21T05:19:52;100004.91;;;5.87;100.00
31681;BME280;18281;51.364;9.566;2023-03-21T05:22:21;100003.91;;;5.92;100.00
31681;BME280;18281;51.364;9.566;2023-03-21T05:24:49;99996.16;;;5.90;100.00
31681;BME280;18281;51.364;9.566;2023-03-21T05:27:19;100002.59;;;6.03;100.00
31681;BME280;18281;51.364;9.566;2023-03-21T05:30:05;99998.59;;;5.95;100.00
31681;BME280;18281;51.364;9.566;2023-03-21T05:32:31;100000.13;;;6.00;100.00
31681;BME280;18281;51.364;9.566;2023-03-21T05:34:57;99996.78;;;5.97;100.00
31681;BME280;18281;51.364;9.566;2023-03-21T05:37:23;100001.03;;;5.99;100.00
31681;BME280;18281;51.364;9.566;2023-03-21T05:39:48;100000.41;;;5.93;100.00
31681;BME280;18281;51.364;9.566;2023-03-21T05:42:14;99996.06;;;5.93;100.00
31681;BME280;18281;51.364;9.566;2023-03-21T05:44:40;100002.22;;;5.90;100.00
31681;BME280;18281;51.364;9.566;2023-03-21T05:47:06;100007.13;;;5.98;100.00
31681;BME280;18281;51.364;9.566;2023-03-21T05:49:31;99993.47;;;5.92;100.00
31681;BME280;18281;51.364;9.566;2023-03-21T05:51:57;99997.78;;;5.93;100.00
31681;BME280;18281;51.364;9.566;2023-03-21T05:54:23;99999.16;;;6.03;100.00
31681;BME280;18281;51.364;9.566;2023-03-21T05:56:48;99995.81;;;5.99;100.00
31681;BME280;18281;51.364;9.566;2023-03-21T05:59:14;99997.78;;;5.93;100.00
31681;BME280;18281;51.364;9.566;2023-03-21T06:01:40;99991.81;;;5.90;100.00
31681;BME280;18281;51.364;9.566;2023-03-21T06:04:06;100004.53;;;5.98;100.00
31681;BME280;18281;51.364;9.566;2023-03-21T06:06:31;99998.28;;;6.04;100.00
31681;BME280;18281;51.364;9.566;2023-03-21T06:08:57;99993.81;;;6.06;100.00
31681;BME280;18281;51.364;9.566;2023-03-21T06:11:30;99996.56;;;6.03;100.00
31681;BME280;18281;51.364;9.566;2023-03-21T06:13:56;99995.88;;;5.98;100.00
31681;BME280;18281;51.364;9.566;2023-03-21T06:16:24;99999.94;;;6.05;100.00
31681;BME280;18281;51.364;9.566;2023-03-21T06:18:50;100002.78;;;5.99;100.00
31681;BME280;18281;51.364;9.566;2023-03-21T06:21:18;99999.91;;;6.06;100.00
31681;BME280;18281;51.364;9.566;2023-03-21T06:23:43;100003.97;;;6.14;100.00
31681;BME280;18281;51.364;9.566;2023-03-21T06:26:09;100005.84;;;6.10;100.00
31681;BME280;18281;51.364;9.566;2023-03-21T06:28:38;100001.31;;;6.15;100.00
31681;BME280;18281;51.364;9.566;2023-03-21T06:31:04;100003.91;;;6.15;100.00
31681;BME280;18281;51.364;9.566;2023-03-21T06:33:29;99993.94;;;6.03;100.00
31681;BME280;18281;51.364;9.566;2023-03-21T06:35:56;99998.81;;;5.88;100.00
31681;BME280;18281;51.364;9.566;2023-03-21T06:38:23;99999.84;;;6.08;100.00
31681;BME280;18281;51.364;9.566;2023-03-21T06:40:51;100000.53;;;6.13;100.00
31681;BME280;18281;51.364;9.566;2023-03-21T06:43:20;99999.50;;;6.17;100.00
31681;BME280;18281;51.364;9.566;2023-03-21T06:45:48;100000.34;;;6.18;100.00
31681;BME280;18281;51.364;9.566;2023-03-21T06:48:13;100002.19;;;6.16;100.00
31681;BME280;18281;51.364;9.566;2023-03-21T06:50:39;100002.00;;;6.20;100.00
31681;BME280;18281;51.364;9.566;2023-03-21T06:53:05;100006.31;;;6.21;100.00
31681;BME280;18281;51.364;9.566;2023-03-21T06:55:30;100004.66;;;6.19;100.00
31681;BME280;18281;51.364;9.566;2023-03-21T06:57:59;100003.56;;;6.24;100.00
31681;BME280;18281;51.364;9.566;2023-03-21T07:00:24;100008.66;;;6.28;100.00
31681;BME280;18281;51.364;9.566;2023-03-21T07:02:50;100019.63;;;6.14;100.00
31681;BME280;18281;51.364;9.566;2023-03-21T07:05:16;100016.88;;;7.09;100.00
31681;BME280;18281;51.364;9.566;2023-03-21T07:07:41;100020.50;;;7.47;100.00
31681;BME280;18281;51.364;9.566;2023-03-21T07:10:08;100013.16;;;7.55;100.00
31681;BME280;18281;51.364;9.566;2023-03-21T07:12:34;100016.16;;;7.67;100.00
31681;BME280;18281;51.364;9.566;2023-03-21T07:15:04;100017.69;;;7.31;100.00
31681;BME280;18281;51.364;9.566;2023-03-21T07:17:31;100010.13;;;7.03;100.00
31681;BME280;18281;51.364;9.566;2023-03-21T07:19:57;100006.53;;;6.83;100.00
31681;BME280;18281;51.364;9.566;2023-03-21T07:22:22;100010.59;;;6.68;100.00
31681;BME280;18281;51.364;9.566;2023-03-21T07:24:47;100012.41;;;6.66;100.00
31681;BME280;18281;51.364;9.566;2023-03-21T07:27:14;100016.72;;;6.67;100.00
31681;BME280;18281;51.364;9.566;2023-03-21T07:29:40;100014.91;;;6.69;100.00
31681;BME280;18281;51.364;9.566;2023-03-21T07:32:06;100011.44;;;6.69;100.00
31681;BME280;18281;51.364;9.566;2023-03-21T07:34:32;100015.22;;;6.62;100.00
31681;BME280;18281;51.364;9.566;2023-03-21T07:36:58;100009.72;;;6.68;100.00
31681;BME280;18281;51.364;9.566;2023-03-21T07:39:24;100003.69;;;6.67;100.00
31681;BME280;18281;51.364;9.566;2023-03-21T07:41:50;100001.75;;;6.72;100.00
31681;BME280;18281;51.364;9.566;2023-03-21T07:44:15;99997.63;;;6.67;100.00
31681;BME280;18281;51.364;9.566;2023-03-21T07:46:41;99992.41;;;6.67;100.00
31681;BME280;18281;51.364;9.566;2023-03-21T07:49:06;99991.53;;;6.66;100.00
31681;BME280;18281;51.364;9.566;2023-03-21T07:51:33;99997.63;;;6.67;100.00
31681;BME280;18281;51.364;9.566;2023-03-21T07:54:00;99990.38;;;6.51;100.00
31681;BME280;18281;51.364;9.566;2023-03-21T07:56:26;99995.91;;;6.66;100.00
31681;BME280;18281;51.364;9.566;2023-03-21T07:58:51;99993.38;;;6.64;100.00
31681;BME280;18281;51.364;9.566;2023-03-21T08:01:17;100000.22;;;6.67;100.00
31681;BME280;18281;51.364;9.566;2023-03-21T08:03:42;100002.72;;;6.70;100.00
31681;BME280;18281;51.364;9.566;2023-03-21T08:06:08;99998.47;;;6.67;100.00
31681;BME280;18281;51.364;9.566;2023-03-21T08:08:34;100004.66;;;6.65;100.00
31681;BME280;18281;51.364;9.566;2023-03-21T08:11:00;100004.78;;;6.62;100.00
31681;BME280;18281;51.364;9.566;2023-03-21T08:13:46;100003.97;;;6.60;100.00
31681;BME280;18281;51.364;9.566;2023-03-21T08:16:11;100005.44;;;6.67;100.00
31681;BME280;18281;51.364;9.566;2023-03-21T08:18:37;100009.63;;;6.71;100.00
31681;BME280;18281;51.364;9.566;2023-03-21T08:21:02;100008.66;;;6.73;100.00
31681;BME280;18281;51.364;9.566;2023-03-21T08:23:28;100005.31;;;6.70;100.00
31681;BME280;18281;51.364;9.566;2023-03-21T08:25:54;100009.38;;;6.77;100.00
31681;BME280;18281;51.364;9.566;2023-03-21T08:28:20;100003.75;;;6.66;100.00
31681;BME280;18281;51.364;9.566;2023-03-21T08:30:46;100007.50;;;6.81;100.00
31681;BME280;18281;51.364;9.566;2023-03-21T08:33:12;100009.88;;;6.87;100.00
31681;BME280;18281;51.364;9.566;2023-03-21T08:35:38;100010.03;;;6.82;100.00
31681;BME280;18281;51.364;9.566;2023-03-21T08:38:04;100009.69;;;6.91;100.00
31681;BME280;18281;51.364;9.566;2023-03-21T08:40:31;100009.56;;;6.95;100.00
31681;BME280;18281;51.364;9.566;2023-03-21T08:42:56;100010.13;;;7.03;100.00
31681;BME280;18281;51.364;9.566;2023-03-21T08:45:22;100017.31;;;6.98;100.00
31681;BME280;18281;51.364;9.566;2023-03-21T08:47:49;100011.94;;;7.01;100.00
31681;BME280;18281;51.364;9.566;2023-03-21T08:50:25;100008.06;;;7.11;100.00
31681;BME280;18281;51.364;9.566;2023-03-21T08:52:52;100014.06;;;7.13;100.00
31681;BME280;18281;51.364;9.566;2023-03-21T08:55:18;100002.69;;;7.14;100.00
31681;BME280;18281;51.364;9.566;2023-03-21T08:57:44;100005.31;;;7.14;100.00
31681;BME280;18281;51.364;9.566;2023-03-21T09:00:12;100007.53;;;7.23;100.00
31681;BME280;18281;51.364;9.566;2023-03-21T09:02:43;100004.78;;;7.27;100.00
31681;BME280;18281;51.364;9.566;2023-03-21T09:05:10;100001.53;;;7.21;100.00
31681;BME280;18281;51.364;9.566;2023-03-21T09:07:39;99995.59;;;7.38;100.00
31681;BME280;18281;51.364;9.566;2023-03-21T09:10:07;99992.78;;;7.64;100.00
31681;BME280;18281;51.364;9.566;2023-03-21T09:12:33;99995.03;;;7.92;100.00
31681;BME280;18281;51.364;9.566;2023-03-21T09:14:59;99987.97;;;7.94;100.00
31681;BME280;18281;51.364;9.566;2023-03-21T09:17:29;99984.78;;;8.25;100.00
31681;BME280;18281;51.364;9.566;2023-03-21T09:19:55;99976.00;;;8.65;100.00
31681;BME280;18281;51.364;9.566;2023-03-21T09:22:21;99978.78;;;8.62;100.00
31681;BME280;18281;51.364;9.566;2023-03-21T09:24:47;99989.19;;;8.81;100.00
31681;BME280;18281;51.364;9.566;2023-03-21T09:27:14;99978.78;;;8.62;100.00
31681;BME280;18281;51.364;9.566;2023-03-21T09:29:41;99975.06;;;8.48;100.00
31681;BME280;18281;51.364;9.566;2023-03-21T09:32:09;99978.34;;;8.14;100.00
31681;BME280;18281;51.364;9.566;2023-03-21T09:34:37;99991.78;;;8.06;100.00
31681;BME280;18281;51.364;9.566;2023-03-21T09:37:07;99981.88;;;7.94;100.00
31681;BME280;18281;51.364;9.566;2023-03-21T09:39:38;99982.53;;;7.99;100.00
31681;BME280;18281;51.364;9.566;2023-03-21T09:44:51;99983.00;;;8.07;100.00
31681;BME280;18281;51.364;9.566;2023-03-21T09:47:22;99977.78;;;8.07;100.00
31681;BME280;18281;51.364;9.566;2023-03-21T09:49:57;99976.47;;;8.17;100.00
31681;BME280;18281;51.364;9.566;2023-03-21T09:52:45;99970.31;;;8.18;100.00
31681;BME280;18281;51.364;9.566;2023-03-21T09:55:19;99975.19;;;8.26;100.00
31681;BME280;18281;51.364;9.566;2023-03-21T09:57:49;99970.44;;;8.34;100.00
31681;BME280;18281;51.364;9.566;2023-03-21T10:00:27;99974.81;;;8.34;100.00
31681;BME280;18281;51.364;9.566;2023-03-21T10:02:58;99967.91;;;8.33;100.00
31681;BME280;18281;51.364;9.566;2023-03-21T10:05:30;99967.78;;;8.36;100.00
31681;BME280;18281;51.364;9.566;2023-03-21T10:08:13;99964.25;;;8.37;100.00
31681;BME280;18281;51.364;9.566;2023-03-21T10:10:48;99965.09;;;8.37;100.00
31681;BME280;18281;51.364;9.566;2023-03-21T10:13:19;99959.63;;;8.42;100.00
31681;BME280;18281;51.364;9.566;2023-03-21T10:15:46;99966.44;;;8.46;100.00
31681;BME280;18281;51.364;9.566;2023-03-21T10:18:23;99955.19;;;8.44;100.00
31681;BME280;18281;51.364;9.566;2023-03-21T10:20:50;99960.41;;;8.44;100.00
31681;BME280;18281;51.364;9.566;2023-03-21T10:23:18;99960.56;;;8.41;100.00
31681;BME280;18281;51.364;9.566;2023-03-21T10:28:18;99945.50;;;8.46;100.00
31681;BME280;18281;51.364;9.566;2023-03-21T10:30:53;99954.91;;;8.50;100.00
31681;BME280;18281;51.364;9.566;2023-03-21T10:33:23;99950.34;;;8.54;100.00
31681;BME280;18281;51.364;9.566;2023-03-21T10:35:55;99949.06;;;8.63;100.00
31681;BME280;18281;51.364;9.566;2023-03-21T10:38:24;99943.28;;;8.56;100.00
31681;BME280;18281;51.364;9.566;2023-03-21T10:40:51;99935.75;;;8.67;100.00
31681;BME280;18281;51.364;9.566;2023-03-21T10:46:05;99942.53;;;8.71;100.00
31681;BME280;18281;51.364;9.566;2023-03-21T10:48:35;99937.00;;;8.78;100.00
31681;BME280;18281;51.364;9.566;2023-03-21T10:51:04;99934.09;;;8.84;100.00
31681;BME280;18281;51.364;9.566;2023-03-21T10:53:35;99938.72;;;8.79;100.00
31681;BME280;18281;51.364;9.566;2023-03-21T10:56:06;99932.59;;;8.78;100.00
31681;BME280;18281;51.364;9.566;2023-03-21T10:58:54;99932.13;;;8.70;100.00
31681;BME280;18281;51.364;9.566;2023-03-21T11:01:29;99938.63;;;8.80;100.00
31681;BME280;18281;51.364;9.566;2023-03-21T11:04:00;99932.47;;;8.81;100.00
31681;BME280;18281;51.364;9.566;2023-03-21T11:06:31;99938.19;;;8.89;100.00
31681;BME280;18281;51.364;9.566;2023-03-21T11:09:07;99927.38;;;8.96;100.00
31681;BME280;18281;51.364;9.566;2023-03-21T11:11:38;99940.72;;;8.91;100.00
31681;BME280;18281;51.364;9.566;2023-03-21T11:14:06;99927.69;;;8.89;100.00
31681;BME280;18281;51.364;9.566;2023-03-21T11:16:42;99926.53;;;8.95;100.00
31681;BME280;18281;51.364;9.566;2023-03-21T11:19:19;99931.41;;;8.85;100.00
31681;BME280;18281;51.364;9.566;2023-03-21T11:21:51;99929.53;;;8.87;100.00
31681;BME280;18281;51.364;9.566;2023-03-21T11:24:18;99924.72;;;8.80;100.00
31681;BME280;18281;51.364;9.566;2023-03-21T11:26:46;99921.75;;;8.86;100.00
31681;BME280;18281;51.364;9.566;2023-03-21T11:29:30;99926.63;;;8.94;100.00
31681;BME280;18281;51.364;9.566;2023-03-21T11:31:59;99921.75;;;9.03;100.00
31681;BME280;18281;51.364;9.566;2023-03-21T11:37:25;99913.28;;;8.98;100.00
31681;BME280;18281;51.364;9.566;2023-03-21T11:40:19;99913.81;;;9.05;100.00
31681;BME280;18281;51.364;9.566;2023-03-21T11:42:52;99912.75;;;9.09;100.00
31681;BME280;18281;51.364;9.566;2023-03-21T11:45:26;99909.44;;;9.05;100.00
31681;BME280;18281;51.364;9.566;2023-03-21T11:47:57;99916.38;;;9.06;100.00
31681;BME280;18281;51.364;9.566;2023-03-21T11:50:33;99916.31;;;9.08;100.00
31681;BME280;18281;51.364;9.566;2023-03-21T11:56:07;99911.81;;;8.93;100.00
31681;BME280;18281;51.364;9.566;2023-03-21T11:59:06;99917.69;;;8.98;100.00
31681;BME280;18281;51.364;9.566;2023-03-21T12:07:01;99912.06;;;9.05;100.00
31681;BME280;18281;51.364;9.566;2023-03-21T12:09:35;99910.44;;;9.03;100.00
31681;BME280;18281;51.364;9.566;2023-03-21T12:12:25;99910.44;;;9.03;100.00
31681;BME280;18281;51.364;9.566;2023-03-21T12:15:10;99907.03;;;9.01;100.00
31681;BME280;18281;51.364;9.566;2023-03-21T12:22:53;99901.81;;;9.01;100.00
31681;BME280;18281;51.364;9.566;2023-03-21T12:25:53;99902.81;;;8.98;100.00
31681;BME280;18281;51.364;9.566;2023-03-21T12:28:39;99898.34;;;9.00;100.00
31681;BME280;18281;51.364;9.566;2023-03-21T12:31:20;99893.13;;;9.00;100.00
31681;BME280;18281;51.364;9.566;2023-03-21T12:34:16;99893.13;;;9.00;100.00
31681;BME280;18281;51.364;9.566;2023-03-21T12:37:07;99888.88;;;8.98;100.00
31681;BME280;18281;51.364;9.566;2023-03-21T12:39:38;99890.34;;;9.03;100.00
31681;BME280;18281;51.364;9.566;2023-03-21T12:44:58;99883.56;;;8.99;100.00
31681;BME280;18281;51.364;9.566;2023-03-21T12:47:28;99882.41;;;9.05;100.00
31681;BME280;18281;51.364;9.566;2023-03-21T12:50:08;99877.63;;;9.13;100.00
31681;BME280;18281;51.364;9.566;2023-03-21T12:52:43;99869.88;;;9.28;100.00
31681;BME280;18281;51.364;9.566;2023-03-21T12:58:21;99865.84;;;9.38;100.00
31681;BME280;18281;51.364;9.566;2023-03-21T13:00:51;99862.94;;;9.44;100.00
31681;BME280;18281;51.364;9.566;2023-03-21T13:03:19;99846.00;;;9.34;100.00
31681;BME280;18281;51.364;9.566;2023-03-21T13:05:55;99855.97;;;9.43;100.00
31681;BME280;18281;51.364;9.566;2023-03-21T13:10:50;99854.88;;;9.47;100.00
31681;BME280;18281;51.364;9.566;2023-03-21T13:21:40;99848.81;;;9.47;100.00
31681;BME280;18281;51.364;9.566;2023-03-21T13:26:45;99843.03;;;9.24;100.00
31681;BME280;18281;51.364;9.566;2023-03-21T13:29:28;99840.88;;;9.15;100.00
31681;BME280;18281;51.364;9.566;2023-03-21T13:32:08;99836.88;;;9.07;100.00
31681;BME280;18281;51.364;9.566;2023-03-21T13:38:35;99840.41;;;9.24;100.00
31681;BME280;18281;51.364;9.566;2023-03-21T13:41:18;99840.84;;;9.32;100.00
31681;BME280;18281;51.364;9.566;2023-03-21T13:49:25;99829.50;;;9.32;100.00
31681;BME280;18281;51.364;9.566;2023-03-21T13:54:53;99818.72;;;9.54;100.00
31681;BME280;18281;51.364;9.566;2023-03-21T13:57:39;99815.75;;;9.44;100.00
31681;BME280;18281;51.364;9.566;2023-03-21T14:00:43;99823.44;;;9.47;100.00
31681;BME280;18281;51.364;9.566;2023-03-21T14:03:16;99815.50;;;9.49;100.00
31681;BME280;18281;51.364;9.566;2023-03-21T14:05:48;99811.25;;;9.46;100.00
31681;BME280;18281;51.364;9.566;2023-03-21T14:08:17;99814.81;;;9.45;100.00
31681;BME280;18281;51.364;9.566;2023-03-21T14:10:46;99806.19;;;9.43;100.00
31681;BME280;18281;51.364;9.566;2023-03-21T14:13:28;99803.31;;;9.48;100.00
31681;BME280;18281;51.364;9.566;2023-03-21T14:16:11;99796.97;;;9.52;100.00
31681;BME280;18281;51.364;9.566;2023-03-21T14:19:13;99794.63;;;9.47;100.00
31681;BME280;18281;51.364;9.566;2023-03-21T14:21:59;99792.41;;;9.55;100.00
31681;BME280;18281;51.364;9.566;2023-03-21T14:35:12;99786.84;;;9.30;100.00
31681;BME280;18281;51.364;9.566;2023-03-21T14:37:41;99790.81;;;9.03;100.00
31681;BME280;18281;51.364;9.566;2023-03-21T14:47:40;99781.00;;;8.91;100.00
31681;BME280;18281;51.364;9.566;2023-03-21T14:50:26;99776.94;;;8.85;100.00